Margaretville, NY (12455)

7:56 PM EDT on March 25, 2017 (GMT -0400)
Margaretville, NY | | Change Station
Active Advisory: Winter Weather Advisory

Elev 1322 ft 42.15 °N, 74.65 °W | Updated 7 minutes ago

Overcast
Overcast
35.7 °F
Feels Like 36 °F
N
1.0
Wind Variable Wind from East
Gusts 1.0 mph

Today
High -- | Low -- °F
--% Chance of Precip.
Yesterday
High -- | Low -- °F
Precip. -- in
Pressure 30.30 in
Visibility 0.2 miles
Clouds Overcast 200 ft
Windchill 36 °F
Dew Point 34 °F
Humidity 92%
Rainfall 0.18 in
Snow Depth Not available.
6:52 AM 7:16 PM
Waning Crescent, 6% visible
METAR KMSV 252335Z AUTO 07004KT 1/4SM OVC002 03/03 A3030 RMK AO1
Pressure 30.30 in
Visibility 0.2 miles
Clouds Overcast 200 ft
Windchill 36 °F
Dew Point 34 °F
Humidity 92%
Rainfall 0.18 in
Snow Depth Not available.
6:52 AM 7:16 PM
Waning Crescent, 6% visible
METAR KMSV 252335Z AUTO 07004KT 1/4SM OVC002 03/03 A3030 RMK AO1

Get Your Daily Forecast Email!

Thanks for signing up!

Be on the lookout for a verification email in your inbox.

You'll start receiving severe weather alerts in your inbox..

×

10-Day Weather Forecast

Almanac

Astronomy

Mar. 25, 2017 Rise Set
Actual Time
Civil Twilight
Nautical Twilight
Astronomical Twilight
Moon
Length of Visible Light
Length of Day
Tomorrow will be .
, % of the Moon is Illuminated

Today's Extremes

State Highs State Lows

Community

WunderPhotos

Upload Photos

1,962,540 photos uploaded!

WunderBlog® & News

Nearby

Air Quality

  Air Quality AQ Index Pollutant
Not available.

Snow Depth

Station Depth Elevation

Earthquake Activity

City Distance Mag. Time & Date
Minimum magnitude displayed is 2.5.

Earthquake Activity

City Distance Mag. Time & Date
Minimum magnitude displayed is 2.5.

Coastal Water Temperatures

Place Temperature

Stations

Nearby Weather Stations

Station Location Temp. Windchill Dew Point Humidity Wind Precip. Elev Updated Type
                   

Watches & Warnings

Winter Weather Advisory
Issued: 3:11 PM EDT Mar. 25, 2017 – National Weather Service

... Winter Weather Advisory in effect from 4 am to 10 am EDT
Sunday...

The National Weather Service in Binghamton has issued a Winter
Weather Advisory for light freezing rain, which is in effect from
4 am to 10 am EDT Sunday.

* Locations... the Mohawk Valley and western Catskill Mountains.

* Hazard types... light freezing rain.

* Accumulations... spotty accumulations less than a tenth of inch.

* Timing... late tonight through Sunday morning.

* Impacts... hazardous travel.

* Winds... east 5 to 10 mph.

* Temperatures... around 30.


Precautionary/preparedness actions...

A Winter Weather Advisory means that periods of light freezing
rain will cause travel difficulties. Be prepared for slippery
roads, and use caution while driving.



Mse